sensor_id;sensor_type;location;lat;lon;timestamp;P1;durP1;ratioP1;P2;durP2;ratioP2
18214;SDS011;9233;51.312;6.512;2022-09-12T00:02:04;14.17;;;8.90;;
18214;SDS011;9233;51.312;6.512;2022-09-12T00:04:52;14.93;;;9.00;;
18214;SDS011;9233;51.312;6.512;2022-09-12T00:07:39;15.07;;;9.20;;
18214;SDS011;9233;51.312;6.512;2022-09-12T00:10:25;12.37;;;7.97;;
18214;SDS011;9233;51.312;6.512;2022-09-12T00:13:12;13.87;;;7.77;;
18214;SDS011;9233;51.312;6.512;2022-09-12T00:15:58;14.00;;;7.97;;
18214;SDS011;9233;51.312;6.512;2022-09-12T00:18:46;12.63;;;8.07;;
18214;SDS011;9233;51.312;6.512;2022-09-12T00:21:34;12.40;;;8.40;;
18214;SDS011;9233;51.312;6.512;2022-09-12T00:24:22;14.50;;;8.27;;
18214;SDS011;9233;51.312;6.512;2022-09-12T00:27:08;11.83;;;8.07;;
18214;SDS011;9233;51.312;6.512;2022-09-12T00:29:55;15.03;;;8.57;;
18214;SDS011;9233;51.312;6.512;2022-09-12T00:32:41;12.53;;;8.23;;
18214;SDS011;9233;51.312;6.512;2022-09-12T00:35:28;12.50;;;8.13;;
18214;SDS011;9233;51.312;6.512;2022-09-12T00:38:16;12.90;;;8.00;;
18214;SDS011;9233;51.312;6.512;2022-09-12T00:41:03;13.53;;;8.40;;
18214;SDS011;9233;51.312;6.512;2022-09-12T00:43:50;15.33;;;8.53;;
18214;SDS011;9233;51.312;6.512;2022-09-12T00:46:39;12.50;;;7.90;;
18214;SDS011;9233;51.312;6.512;2022-09-12T00:49:28;12.10;;;7.63;;
18214;SDS011;9233;51.312;6.512;2022-09-12T00:52:15;11.63;;;7.77;;
18214;SDS011;9233;51.312;6.512;2022-09-12T00:55:08;13.97;;;7.67;;
18214;SDS011;9233;51.312;6.512;2022-09-12T00:57:58;14.97;;;8.17;;
18214;SDS011;9233;51.312;6.512;2022-09-12T01:00:46;14.50;;;8.63;;
18214;SDS011;9233;51.312;6.512;2022-09-12T01:03:33;14.57;;;8.53;;
18214;SDS011;9233;51.312;6.512;2022-09-12T01:06:20;12.43;;;8.00;;
18214;SDS011;9233;51.312;6.512;2022-09-12T01:09:08;16.07;;;9.23;;
18214;SDS011;9233;51.312;6.512;2022-09-12T01:11:59;17.53;;;9.57;;
18214;SDS011;9233;51.312;6.512;2022-09-12T01:14:47;16.70;;;9.07;;
18214;SDS011;9233;51.312;6.512;2022-09-12T01:17:36;19.40;;;9.57;;
18214;SDS011;9233;51.312;6.512;2022-09-12T01:20:40;15.37;;;8.90;;
18214;SDS011;9233;51.312;6.512;2022-09-12T01:27:19;14.10;;;8.73;;
18214;SDS011;9233;51.312;6.512;2022-09-12T01:30:23;14.17;;;9.23;;
18214;SDS011;9233;51.312;6.512;2022-09-12T01:36:35;16.40;;;9.60;;
18214;SDS011;9233;51.312;6.512;2022-09-12T01:39:27;19.90;;;10.07;;
18214;SDS011;9233;51.312;6.512;2022-09-12T01:42:17;16.47;;;9.33;;
18214;SDS011;9233;51.312;6.512;2022-09-12T01:45:07;16.83;;;9.30;;
18214;SDS011;9233;51.312;6.512;2022-09-12T01:48:00;19.53;;;11.00;;
18214;SDS011;9233;51.312;6.512;2022-09-12T01:50:50;23.17;;;11.37;;
18214;SDS011;9233;51.312;6.512;2022-09-12T01:53:38;23.33;;;11.33;;
18214;SDS011;9233;51.312;6.512;2022-09-12T01:56:28;21.93;;;11.60;;
18214;SDS011;9233;51.312;6.512;2022-09-12T01:59:19;25.33;;;12.13;;
18214;SDS011;9233;51.312;6.512;2022-09-12T02:02:10;22.80;;;11.83;;
18214;SDS011;9233;51.312;6.512;2022-09-12T02:05:01;24.43;;;12.37;;
18214;SDS011;9233;51.312;6.512;2022-09-12T02:07:50;22.60;;;11.70;;
18214;SDS011;9233;51.312;6.512;2022-09-12T02:10:40;27.80;;;12.90;;
18214;SDS011;9233;51.312;6.512;2022-09-12T02:13:31;26.87;;;14.20;;
18214;SDS011;9233;51.312;6.512;2022-09-12T02:16:22;26.37;;;13.83;;
18214;SDS011;9233;51.312;6.512;2022-09-12T02:19:16;28.73;;;14.20;;
18214;SDS011;9233;51.312;6.512;2022-09-12T02:22:05;32.73;;;15.33;;
18214;SDS011;9233;51.312;6.512;2022-09-12T02:24:53;35.13;;;15.57;;
18214;SDS011;9233;51.312;6.512;2022-09-12T02:27:42;31.93;;;16.03;;
18214;SDS011;9233;51.312;6.512;2022-09-12T02:30:33;36.10;;;15.40;;
18214;SDS011;9233;51.312;6.512;2022-09-12T02:33:23;30.47;;;14.97;;
18214;SDS011;9233;51.312;6.512;2022-09-12T02:36:14;33.77;;;17.27;;
18214;SDS011;9233;51.312;6.512;2022-09-12T02:39:09;33.27;;;17.83;;
18214;SDS011;9233;51.312;6.512;2022-09-12T02:41:57;40.07;;;19.53;;
18214;SDS011;9233;51.312;6.512;2022-09-12T02:44:45;40.20;;;19.63;;
18214;SDS011;9233;51.312;6.512;2022-09-12T02:47:33;32.80;;;17.83;;
18214;SDS011;9233;51.312;6.512;2022-09-12T02:50:22;33.13;;;15.63;;
18214;SDS011;9233;51.312;6.512;2022-09-12T02:53:09;35.40;;;17.33;;
18214;SDS011;9233;51.312;6.512;2022-09-12T02:55:57;33.53;;;16.73;;
18214;SDS011;9233;51.312;6.512;2022-09-12T02:58:43;35.20;;;17.37;;
18214;SDS011;9233;51.312;6.512;2022-09-12T03:01:35;37.97;;;18.27;;
18214;SDS011;9233;51.312;6.512;2022-09-12T03:04:52;37.00;;;19.30;;
18214;SDS011;9233;51.312;6.512;2022-09-12T03:11:16;38.57;;;19.47;;
18214;SDS011;9233;51.312;6.512;2022-09-12T03:14:12;40.53;;;20.23;;
18214;SDS011;9233;51.312;6.512;2022-09-12T03:17:09;36.50;;;19.13;;
18214;SDS011;9233;51.312;6.512;2022-09-12T03:20:00;40.70;;;18.57;;
18214;SDS011;9233;51.312;6.512;2022-09-12T03:22:51;40.97;;;19.97;;
18214;SDS011;9233;51.312;6.512;2022-09-12T03:25:40;41.73;;;18.97;;
18214;SDS011;9233;51.312;6.512;2022-09-12T03:28:30;37.10;;;19.07;;
18214;SDS011;9233;51.312;6.512;2022-09-12T03:31:18;37.77;;;18.23;;
18214;SDS011;9233;51.312;6.512;2022-09-12T03:34:05;35.70;;;18.00;;
18214;SDS011;9233;51.312;6.512;2022-09-12T03:36:57;35.47;;;17.10;;
18214;SDS011;9233;51.312;6.512;2022-09-12T03:39:43;35.43;;;17.03;;
18214;SDS011;9233;51.312;6.512;2022-09-12T03:42:30;35.13;;;15.90;;
18214;SDS011;9233;51.312;6.512;2022-09-12T03:45:18;30.30;;;15.70;;
18214;SDS011;9233;51.312;6.512;2022-09-12T03:48:04;29.10;;;15.23;;
18214;SDS011;9233;51.312;6.512;2022-09-12T03:50:51;31.63;;;15.83;;
18214;SDS011;9233;51.312;6.512;2022-09-12T03:53:38;28.90;;;14.37;;
18214;SDS011;9233;51.312;6.512;2022-09-12T03:56:25;35.93;;;16.40;;
18214;SDS011;9233;51.312;6.512;2022-09-12T03:59:11;31.57;;;14.90;;
18214;SDS011;9233;51.312;6.512;2022-09-12T04:01:59;28.50;;;15.77;;
18214;SDS011;9233;51.312;6.512;2022-09-12T04:04:46;35.90;;;16.40;;
18214;SDS011;9233;51.312;6.512;2022-09-12T04:07:33;33.77;;;17.20;;
18214;SDS011;9233;51.312;6.512;2022-09-12T04:10:19;34.27;;;17.63;;
18214;SDS011;9233;51.312;6.512;2022-09-12T04:13:06;34.47;;;17.40;;
18214;SDS011;9233;51.312;6.512;2022-09-12T04:15:56;44.67;;;20.00;;
18214;SDS011;9233;51.312;6.512;2022-09-12T04:18:44;37.63;;;19.20;;
18214;SDS011;9233;51.312;6.512;2022-09-12T04:21:31;36.37;;;18.37;;
18214;SDS011;9233;51.312;6.512;2022-09-12T04:24:17;38.13;;;19.67;;
18214;SDS011;9233;51.312;6.512;2022-09-12T04:27:04;38.40;;;18.33;;
18214;SDS011;9233;51.312;6.512;2022-09-12T04:29:51;40.27;;;19.60;;
18214;SDS011;9233;51.312;6.512;2022-09-12T04:32:38;38.50;;;18.67;;
18214;SDS011;9233;51.312;6.512;2022-09-12T04:35:27;37.53;;;18.17;;
18214;SDS011;9233;51.312;6.512;2022-09-12T04:38:13;35.30;;;17.83;;
18214;SDS011;9233;51.312;6.512;2022-09-12T04:41:00;31.77;;;16.83;;
18214;SDS011;9233;51.312;6.512;2022-09-12T04:43:49;33.00;;;17.00;;
18214;SDS011;9233;51.312;6.512;2022-09-12T04:46:37;29.77;;;15.70;;
18214;SDS011;9233;51.312;6.512;2022-09-12T04:49:25;32.00;;;15.20;;
18214;SDS011;9233;51.312;6.512;2022-09-12T04:52:13;27.53;;;14.13;;
18214;SDS011;9233;51.312;6.512;2022-09-12T04:54:59;28.10;;;14.23;;
18214;SDS011;9233;51.312;6.512;2022-09-12T04:57:46;30.70;;;13.90;;
18214;SDS011;9233;51.312;6.512;2022-09-12T05:00:33;29.03;;;13.10;;
18214;SDS011;9233;51.312;6.512;2022-09-12T05:03:19;22.17;;;12.77;;
18214;SDS011;9233;51.312;6.512;2022-09-12T05:06:07;26.07;;;12.43;;
18214;SDS011;9233;51.312;6.512;2022-09-12T05:08:56;24.47;;;11.47;;
18214;SDS011;9233;51.312;6.512;2022-09-12T05:11:44;19.97;;;11.47;;
18214;SDS011;9233;51.312;6.512;2022-09-12T05:14:30;21.80;;;11.27;;
18214;SDS011;9233;51.312;6.512;2022-09-12T05:17:17;22.20;;;11.03;;
18214;SDS011;9233;51.312;6.512;2022-09-12T05:20:04;18.80;;;9.93;;
18214;SDS011;9233;51.312;6.512;2022-09-12T05:22:53;19.37;;;10.60;;
18214;SDS011;9233;51.312;6.512;2022-09-12T05:25:47;19.80;;;9.70;;
18214;SDS011;9233;51.312;6.512;2022-09-12T05:28:35;19.27;;;9.60;;
18214;SDS011;9233;51.312;6.512;2022-09-12T05:31:24;17.87;;;9.63;;
18214;SDS011;9233;51.312;6.512;2022-09-12T05:34:12;15.90;;;8.87;;
18214;SDS011;9233;51.312;6.512;2022-09-12T05:36:59;16.37;;;9.23;;
18214;SDS011;9233;51.312;6.512;2022-09-12T05:39:46;17.17;;;9.13;;
18214;SDS011;9233;51.312;6.512;2022-09-12T05:42:34;17.23;;;9.53;;
18214;SDS011;9233;51.312;6.512;2022-09-12T05:45:20;14.60;;;8.53;;
18214;SDS011;9233;51.312;6.512;2022-09-12T05:48:07;16.93;;;8.60;;
18214;SDS011;9233;51.312;6.512;2022-09-12T05:50:57;13.47;;;7.93;;
18214;SDS011;9233;51.312;6.512;2022-09-12T05:53:46;22.73;;;12.63;;
18214;SDS011;9233;51.312;6.512;2022-09-12T05:56:36;13.60;;;8.80;;
18214;SDS011;9233;51.312;6.512;2022-09-12T05:59:25;15.00;;;8.07;;
18214;SDS011;9233;51.312;6.512;2022-09-12T06:02:12;15.07;;;7.80;;
18214;SDS011;9233;51.312;6.512;2022-09-12T06:04:59;14.43;;;7.23;;
18214;SDS011;9233;51.312;6.512;2022-09-12T06:07:46;15.20;;;7.93;;
18214;SDS011;9233;51.312;6.512;2022-09-12T06:10:32;14.77;;;7.73;;
18214;SDS011;9233;51.312;6.512;2022-09-12T06:13:19;12.50;;;7.57;;
18214;SDS011;9233;51.312;6.512;2022-09-12T06:16:08;15.60;;;8.40;;
18214;SDS011;9233;51.312;6.512;2022-09-12T06:18:56;12.60;;;7.77;;
18214;SDS011;9233;51.312;6.512;2022-09-12T06:21:43;15.90;;;7.63;;
18214;SDS011;9233;51.312;6.512;2022-09-12T06:24:31;13.80;;;7.27;;
18214;SDS011;9233;51.312;6.512;2022-09-12T06:27:18;12.83;;;7.70;;
18214;SDS011;9233;51.312;6.512;2022-09-12T06:30:05;13.90;;;7.20;;
18214;SDS011;9233;51.312;6.512;2022-09-12T06:32:54;11.90;;;7.40;;
18214;SDS011;9233;51.312;6.512;2022-09-12T06:35:41;13.23;;;7.53;;
18214;SDS011;9233;51.312;6.512;2022-09-12T06:38:28;16.63;;;7.70;;
18214;SDS011;9233;51.312;6.512;2022-09-12T06:41:14;12.20;;;7.50;;
18214;SDS011;9233;51.312;6.512;2022-09-12T06:44:01;12.57;;;6.93;;
18214;SDS011;9233;51.312;6.512;2022-09-12T06:46:48;9.97;;;6.23;;
18214;SDS011;9233;51.312;6.512;2022-09-12T06:49:36;13.87;;;7.63;;
18214;SDS011;9233;51.312;6.512;2022-09-12T06:52:23;11.80;;;6.73;;
18214;SDS011;9233;51.312;6.512;2022-09-12T06:55:09;12.80;;;7.27;;
18214;SDS011;9233;51.312;6.512;2022-09-12T06:57:56;12.10;;;7.43;;
18214;SDS011;9233;51.312;6.512;2022-09-12T07:00:43;14.97;;;7.20;;
18214;SDS011;9233;51.312;6.512;2022-09-12T07:03:30;12.97;;;6.67;;
18214;SDS011;9233;51.312;6.512;2022-09-12T07:06:19;12.13;;;7.57;;
18214;SDS011;9233;51.312;6.512;2022-09-12T07:09:08;10.40;;;6.27;;
18214;SDS011;9233;51.312;6.512;2022-09-12T07:11:56;12.17;;;6.57;;
18214;SDS011;9233;51.312;6.512;2022-09-12T07:14:43;10.77;;;7.13;;
18214;SDS011;9233;51.312;6.512;2022-09-12T07:17:29;12.83;;;7.10;;
18214;SDS011;9233;51.312;6.512;2022-09-12T07:20:16;10.93;;;6.87;;
18214;SDS011;9233;51.312;6.512;2022-09-12T07:23:04;10.83;;;6.93;;
18214;SDS011;9233;51.312;6.512;2022-09-12T07:25:51;14.20;;;7.37;;
18214;SDS011;9233;51.312;6.512;2022-09-12T07:28:38;12.57;;;7.23;;
18214;SDS011;9233;51.312;6.512;2022-09-12T07:31:25;16.50;;;7.73;;
18214;SDS011;9233;51.312;6.512;2022-09-12T07:34:13;12.07;;;6.80;;
18214;SDS011;9233;51.312;6.512;2022-09-12T07:36:59;12.07;;;7.00;;
18214;SDS011;9233;51.312;6.512;2022-09-12T07:39:47;13.87;;;6.77;;
18214;SDS011;9233;51.312;6.512;2022-09-12T07:42:33;13.73;;;7.70;;
18214;SDS011;9233;51.312;6.512;2022-09-12T07:45:20;12.57;;;7.73;;
18214;SDS011;9233;51.312;6.512;2022-09-12T07:48:07;14.10;;;7.57;;
18214;SDS011;9233;51.312;6.512;2022-09-12T07:50:57;13.10;;;7.63;;
18214;SDS011;9233;51.312;6.512;2022-09-12T07:53:44;14.73;;;8.07;;
18214;SDS011;9233;51.312;6.512;2022-09-12T07:56:33;13.03;;;7.70;;
18214;SDS011;9233;51.312;6.512;2022-09-12T07:59:19;13.23;;;7.43;;
18214;SDS011;9233;51.312;6.512;2022-09-12T08:02:08;19.33;;;8.83;;
18214;SDS011;9233;51.312;6.512;2022-09-12T08:04:57;13.97;;;7.80;;
18214;SDS011;9233;51.312;6.512;2022-09-12T08:07:43;12.53;;;6.97;;
18214;SDS011;9233;51.312;6.512;2022-09-12T08:10:30;16.47;;;8.10;;
18214;SDS011;9233;51.312;6.512;2022-09-12T08:13:18;15.83;;;7.63;;
18214;SDS011;9233;51.312;6.512;2022-09-12T08:16:11;21.97;;;11.67;;
18214;SDS011;9233;51.312;6.512;2022-09-12T08:18:59;16.20;;;9.83;;
18214;SDS011;9233;51.312;6.512;2022-09-12T08:21:46;16.23;;;9.50;;
18214;SDS011;9233;51.312;6.512;2022-09-12T08:24:33;17.17;;;9.20;;
18214;SDS011;9233;51.312;6.512;2022-09-12T08:27:19;12.93;;;7.93;;
18214;SDS011;9233;51.312;6.512;2022-09-12T08:30:08;13.93;;;8.43;;
18214;SDS011;9233;51.312;6.512;2022-09-12T08:32:56;12.77;;;8.20;;
18214;SDS011;9233;51.312;6.512;2022-09-12T08:35:42;13.47;;;8.67;;
18214;SDS011;9233;51.312;6.512;2022-09-12T08:38:29;16.37;;;8.53;;
18214;SDS011;9233;51.312;6.512;2022-09-12T08:41:19;15.97;;;8.57;;
18214;SDS011;9233;51.312;6.512;2022-09-12T08:44:17;16.00;;;8.37;;
18214;SDS011;9233;51.312;6.512;2022-09-12T08:47:20;15.27;;;8.03;;
18214;SDS011;9233;51.312;6.512;2022-09-12T08:50:15;15.73;;;8.43;;
18214;SDS011;9233;51.312;6.512;2022-09-12T08:53:03;17.93;;;8.23;;
18214;SDS011;9233;51.312;6.512;2022-09-12T08:55:57;14.50;;;8.17;;
18214;SDS011;9233;51.312;6.512;2022-09-12T08:58:44;15.63;;;8.50;;
18214;SDS011;9233;51.312;6.512;2022-09-12T09:01:31;12.33;;;7.93;;
18214;SDS011;9233;51.312;6.512;2022-09-12T09:04:26;14.80;;;8.37;;
18214;SDS011;9233;51.312;6.512;2022-09-12T09:07:25;14.87;;;7.93;;
18214;SDS011;9233;51.312;6.512;2022-09-12T09:10:20;12.10;;;7.60;;
18214;SDS011;9233;51.312;6.512;2022-09-12T09:13:14;16.73;;;8.20;;
18214;SDS011;9233;51.312;6.512;2022-09-12T09:16:24;13.43;;;7.90;;
18214;SDS011;9233;51.312;6.512;2022-09-12T09:19:14;12.03;;;7.63;;
18214;SDS011;9233;51.312;6.512;2022-09-12T09:22:04;13.97;;;7.53;;
18214;SDS011;9233;51.312;6.512;2022-09-12T09:24:54;12.13;;;7.30;;
18214;SDS011;9233;51.312;6.512;2022-09-12T09:27:45;14.00;;;7.97;;
18214;SDS011;9233;51.312;6.512;2022-09-12T09:30:34;13.07;;;8.03;;
18214;SDS011;9233;51.312;6.512;2022-09-12T09:33:23;11.50;;;7.40;;
18214;SDS011;9233;51.312;6.512;2022-09-12T09:36:13;12.33;;;6.70;;
18214;SDS011;9233;51.312;6.512;2022-09-12T09:39:08;10.87;;;6.87;;
18214;SDS011;9233;51.312;6.512;2022-09-12T09:42:04;13.17;;;7.53;;
18214;SDS011;9233;51.312;6.512;2022-09-12T09:44:56;13.53;;;6.97;;
18214;SDS011;9233;51.312;6.512;2022-09-12T09:47:45;14.13;;;6.20;;
18214;SDS011;9233;51.312;6.512;2022-09-12T09:50:34;12.87;;;6.53;;
18214;SDS011;9233;51.312;6.512;2022-09-12T09:53:24;13.63;;;6.10;;
18214;SDS011;9233;51.312;6.512;2022-09-12T09:56:18;10.53;;;5.73;;
18214;SDS011;9233;51.312;6.512;2022-09-12T09:59:15;12.33;;;6.23;;
18214;SDS011;9233;51.312;6.512;2022-09-12T10:02:16;7.60;;;5.30;;
18214;SDS011;9233;51.312;6.512;2022-09-12T10:05:07;9.77;;;5.53;;
18214;SDS011;9233;51.312;6.512;2022-09-12T10:08:01;8.70;;;5.87;;
18214;SDS011;9233;51.312;6.512;2022-09-12T10:10:52;14.87;;;9.33;;
18214;SDS011;9233;51.312;6.512;2022-09-12T10:13:42;10.43;;;6.63;;
18214;SDS011;9233;51.312;6.512;2022-09-12T10:16:47;10.07;;;6.33;;
18214;SDS011;9233;51.312;6.512;2022-09-12T10:19:37;10.90;;;5.60;;
18214;SDS011;9233;51.312;6.512;2022-09-12T10:22:25;7.70;;;5.10;;
18214;SDS011;9233;51.312;6.512;2022-09-12T10:25:14;8.47;;;5.57;;
18214;SDS011;9233;51.312;6.512;2022-09-12T10:28:03;7.20;;;5.73;;
18214;SDS011;9233;51.312;6.512;2022-09-12T10:30:51;9.03;;;5.50;;
18214;SDS011;9233;51.312;6.512;2022-09-12T10:33:39;9.33;;;4.93;;
18214;SDS011;9233;51.312;6.512;2022-09-12T10:36:34;6.90;;;4.53;;
18214;SDS011;9233;51.312;6.512;2022-09-12T10:39:21;7.30;;;5.03;;
18214;SDS011;9233;51.312;6.512;2022-09-12T10:42:11;7.33;;;4.90;;
18214;SDS011;9233;51.312;6.512;2022-09-12T10:44:59;5.90;;;4.60;;
18214;SDS011;9233;51.312;6.512;2022-09-12T10:47:47;7.23;;;4.57;;
18214;SDS011;9233;51.312;6.512;2022-09-12T10:50:35;4.77;;;3.73;;
18214;SDS011;9233;51.312;6.512;2022-09-12T10:53:25;6.27;;;4.20;;
18214;SDS011;9233;51.312;6.512;2022-09-12T10:56:13;7.93;;;5.80;;
18214;SDS011;9233;51.312;6.512;2022-09-12T10:59:05;7.73;;;4.90;;
18214;SDS011;9233;51.312;6.512;2022-09-12T11:01:57;7.03;;;4.47;;
18214;SDS011;9233;51.312;6.512;2022-09-12T11:04:50;6.13;;;3.87;;
18214;SDS011;9233;51.312;6.512;2022-09-12T11:07:45;4.77;;;3.57;;
18214;SDS011;9233;51.312;6.512;2022-09-12T11:10:35;4.50;;;3.67;;
18214;SDS011;9233;51.312;6.512;2022-09-12T11:13:27;6.70;;;4.03;;
18214;SDS011;9233;51.312;6.512;2022-09-12T11:16:22;7.07;;;3.70;;
18214;SDS011;9233;51.312;6.512;2022-09-12T11:19:16;5.60;;;3.87;;
18214;SDS011;9233;51.312;6.512;2022-09-12T11:22:16;4.67;;;3.70;;
18214;SDS011;9233;51.312;6.512;2022-09-12T11:25:17;5.93;;;4.33;;
18214;SDS011;9233;51.312;6.512;2022-09-12T11:28:13;4.63;;;3.03;;
18214;SDS011;9233;51.312;6.512;2022-09-12T11:31:14;6.37;;;3.20;;
18214;SDS011;9233;51.312;6.512;2022-09-12T11:34:10;5.63;;;3.30;;
18214;SDS011;9233;51.312;6.512;2022-09-12T11:37:07;7.30;;;3.13;;
18214;SDS011;9233;51.312;6.512;2022-09-12T11:40:08;4.77;;;2.87;;
18214;SDS011;9233;51.312;6.512;2022-09-12T11:43:06;5.17;;;2.70;;
18214;SDS011;9233;51.312;6.512;2022-09-12T11:45:58;4.27;;;2.40;;
18214;SDS011;9233;51.312;6.512;2022-09-12T11:48:52;4.20;;;2.17;;
18214;SDS011;9233;51.312;6.512;2022-09-12T11:51:43;3.07;;;2.30;;
18214;SDS011;9233;51.312;6.512;2022-09-12T11:54:36;6.23;;;2.80;;
18214;SDS011;9233;51.312;6.512;2022-09-12T11:57:25;4.07;;;2.97;;
18214;SDS011;9233;51.312;6.512;2022-09-12T12:00:15;3.53;;;2.47;;
18214;SDS011;9233;51.312;6.512;2022-09-12T12:03:04;4.93;;;2.53;;
18214;SDS011;9233;51.312;6.512;2022-09-12T12:05:55;6.73;;;2.63;;
18214;SDS011;9233;51.312;6.512;2022-09-12T12:08:44;6.43;;;3.17;;
18214;SDS011;9233;51.312;6.512;2022-09-12T12:11:34;4.50;;;3.07;;
18214;SDS011;9233;51.312;6.512;2022-09-12T12:14:34;3.43;;;2.90;;
18214;SDS011;9233;51.312;6.512;2022-09-12T12:17:24;3.73;;;2.73;;
18214;SDS011;9233;51.312;6.512;2022-09-12T12:20:14;5.20;;;2.87;;
18214;SDS011;9233;51.312;6.512;2022-09-12T12:23:02;4.17;;;2.90;;
18214;SDS011;9233;51.312;6.512;2022-09-12T12:25:50;5.90;;;2.90;;
18214;SDS011;9233;51.312;6.512;2022-09-12T12:38:27;3.60;;;2.57;;
18214;SDS011;9233;51.312;6.512;2022-09-12T12:44:49;3.57;;;2.20;;
18214;SDS011;9233;51.312;6.512;2022-09-12T12:47:38;3.13;;;2.10;;
18214;SDS011;9233;51.312;6.512;2022-09-12T12:50:27;5.40;;;2.60;;
18214;SDS011;9233;51.312;6.512;2022-09-12T12:53:19;4.77;;;3.40;;
18214;SDS011;9233;51.312;6.512;2022-09-12T12:56:24;5.50;;;2.40;;
18214;SDS011;9233;51.312;6.512;2022-09-12T12:59:15;3.03;;;2.50;;
18214;SDS011;9233;51.312;6.512;2022-09-12T13:02:04;5.73;;;2.60;;
18214;SDS011;9233;51.312;6.512;2022-09-12T13:04:51;4.37;;;2.60;;
18214;SDS011;9233;51.312;6.512;2022-09-12T13:07:38;4.13;;;2.63;;
18214;SDS011;9233;51.312;6.512;2022-09-12T13:10:26;2.23;;;2.03;;
18214;SDS011;9233;51.312;6.512;2022-09-12T13:13:16;3.10;;;2.50;;
18214;SDS011;9233;51.312;6.512;2022-09-12T13:16:08;4.90;;;2.63;;
18214;SDS011;9233;51.312;6.512;2022-09-12T13:18:56;3.63;;;2.30;;
18214;SDS011;9233;51.312;6.512;2022-09-12T13:21:54;5.17;;;2.30;;
18214;SDS011;9233;51.312;6.512;2022-09-12T13:24:42;3.07;;;2.30;;
18214;SDS011;9233;51.312;6.512;2022-09-12T13:27:30;2.60;;;2.30;;
18214;SDS011;9233;51.312;6.512;2022-09-12T13:30:17;2.87;;;2.07;;
18214;SDS011;9233;51.312;6.512;2022-09-12T13:33:06;2.20;;;2.00;;
18214;SDS011;9233;51.312;6.512;2022-09-12T13:39:25;4.90;;;2.60;;
18214;SDS011;9233;51.312;6.512;2022-09-12T13:45:26;5.60;;;2.80;;
18214;SDS011;9233;51.312;6.512;2022-09-12T13:48:14;3.30;;;2.47;;
18214;SDS011;9233;51.312;6.512;2022-09-12T13:51:02;3.50;;;2.40;;
18214;SDS011;9233;51.312;6.512;2022-09-12T13:53:49;4.23;;;2.87;;
18214;SDS011;9233;51.312;6.512;2022-09-12T13:56:47;2.50;;;2.03;;
18214;SDS011;9233;51.312;6.512;2022-09-12T13:59:37;5.03;;;2.50;;
18214;SDS011;9233;51.312;6.512;2022-09-12T14:02:25;2.20;;;2.00;;
18214;SDS011;9233;51.312;6.512;2022-09-12T14:05:16;2.70;;;2.20;;
18214;SDS011;9233;51.312;6.512;2022-09-12T14:08:05;6.13;;;2.93;;
18214;SDS011;9233;51.312;6.512;2022-09-12T14:10:52;8.37;;;4.07;;
18214;SDS011;9233;51.312;6.512;2022-09-12T14:13:40;4.67;;;3.20;;
18214;SDS011;9233;51.312;6.512;2022-09-12T14:16:27;3.10;;;2.40;;
18214;SDS011;9233;51.312;6.512;2022-09-12T14:19:15;2.87;;;2.40;;
18214;SDS011;9233;51.312;6.512;2022-09-12T14:22:03;2.97;;;2.40;;
18214;SDS011;9233;51.312;6.512;2022-09-12T14:24:50;3.23;;;1.97;;
18214;SDS011;9233;51.312;6.512;2022-09-12T14:27:38;3.23;;;2.53;;
18214;SDS011;9233;51.312;6.512;2022-09-12T14:30:32;3.73;;;3.20;;
18214;SDS011;9233;51.312;6.512;2022-09-12T14:33:20;5.43;;;2.40;;
18214;SDS011;9233;51.312;6.512;2022-09-12T14:36:10;2.13;;;1.93;;
18214;SDS011;9233;51.312;6.512;2022-09-12T14:39:01;3.90;;;2.13;;
18214;SDS011;9233;51.312;6.512;2022-09-12T14:41:50;2.87;;;1.90;;
18214;SDS011;9233;51.312;6.512;2022-09-12T14:44:49;3.07;;;1.90;;
18214;SDS011;9233;51.312;6.512;2022-09-12T14:47:39;1.80;;;1.70;;
18214;SDS011;9233;51.312;6.512;2022-09-12T14:50:28;2.20;;;1.80;;
18214;SDS011;9233;51.312;6.512;2022-09-12T14:53:22;2.13;;;1.80;;
18214;SDS011;9233;51.312;6.512;2022-09-12T14:56:11;2.03;;;1.87;;
18214;SDS011;9233;51.312;6.512;2022-09-12T15:02:20;2.03;;;1.90;;
18214;SDS011;9233;51.312;6.512;2022-09-12T15:05:16;2.90;;;2.60;;
18214;SDS011;9233;51.312;6.512;2022-09-12T15:08:12;2.83;;;2.57;;
18214;SDS011;9233;51.312;6.512;2022-09-12T15:10:59;2.23;;;2.03;;
18214;SDS011;9233;51.312;6.512;2022-09-12T15:13:46;2.83;;;1.97;;
18214;SDS011;9233;51.312;6.512;2022-09-12T15:16:32;2.40;;;1.80;;
18214;SDS011;9233;51.312;6.512;2022-09-12T15:19:19;3.77;;;2.67;;
18214;SDS011;9233;51.312;6.512;2022-09-12T15:22:07;2.77;;;2.00;;
18214;SDS011;9233;51.312;6.512;2022-09-12T15:24:55;2.70;;;2.33;;
18214;SDS011;9233;51.312;6.512;2022-09-12T15:27:41;3.70;;;2.43;;
18214;SDS011;9233;51.312;6.512;2022-09-12T15:30:28;2.70;;;2.10;;
18214;SDS011;9233;51.312;6.512;2022-09-12T15:33:14;2.13;;;1.70;;
18214;SDS011;9233;51.312;6.512;2022-09-12T15:36:02;2.37;;;2.10;;
18214;SDS011;9233;51.312;6.512;2022-09-12T15:38:50;3.40;;;1.70;;
18214;SDS011;9233;51.312;6.512;2022-09-12T15:41:37;2.03;;;1.63;;
18214;SDS011;9233;51.312;6.512;2022-09-12T15:44:24;1.70;;;1.60;;
18214;SDS011;9233;51.312;6.512;2022-09-12T15:47:11;2.47;;;2.17;;
18214;SDS011;9233;51.312;6.512;2022-09-12T15:49:58;2.40;;;1.73;;
18214;SDS011;9233;51.312;6.512;2022-09-12T15:52:45;2.93;;;1.90;;
18214;SDS011;9233;51.312;6.512;2022-09-12T15:55:33;2.53;;;2.07;;
18214;SDS011;9233;51.312;6.512;2022-09-12T15:58:20;2.20;;;1.73;;
18214;SDS011;9233;51.312;6.512;2022-09-12T16:01:08;3.70;;;3.00;;
18214;SDS011;9233;51.312;6.512;2022-09-12T16:03:55;4.60;;;3.00;;
18214;SDS011;9233;51.312;6.512;2022-09-12T16:06:42;4.87;;;2.60;;
18214;SDS011;9233;51.312;6.512;2022-09-12T16:09:28;3.50;;;2.27;;
18214;SDS011;9233;51.312;6.512;2022-09-12T16:12:16;2.13;;;1.90;;
18214;SDS011;9233;51.312;6.512;2022-09-12T16:15:03;2.20;;;1.90;;
18214;SDS011;9233;51.312;6.512;2022-09-12T16:17:50;2.17;;;1.80;;
18214;SDS011;9233;51.312;6.512;2022-09-12T16:20:37;2.23;;;1.90;;
18214;SDS011;9233;51.312;6.512;2022-09-12T16:23:24;2.23;;;1.90;;
18214;SDS011;9233;51.312;6.512;2022-09-12T16:26:11;2.27;;;1.97;;
18214;SDS011;9233;51.312;6.512;2022-09-12T16:28:59;2.70;;;2.00;;
18214;SDS011;9233;51.312;6.512;2022-09-12T16:31:46;2.57;;;1.80;;
18214;SDS011;9233;51.312;6.512;2022-09-12T16:34:32;1.83;;;1.67;;
18214;SDS011;9233;51.312;6.512;2022-09-12T16:37:19;2.07;;;1.80;;
18214;SDS011;9233;51.312;6.512;2022-09-12T16:40:06;2.80;;;1.80;;
18214;SDS011;9233;51.312;6.512;2022-09-12T16:42:53;2.90;;;1.80;;
18214;SDS011;9233;51.312;6.512;2022-09-12T16:45:41;1.83;;;1.53;;
18214;SDS011;9233;51.312;6.512;2022-09-12T16:48:28;2.10;;;1.90;;
18214;SDS011;9233;51.312;6.512;2022-09-12T16:51:15;11.63;;;7.97;;
18214;SDS011;9233;51.312;6.512;2022-09-12T16:54:04;9.20;;;6.53;;
18214;SDS011;9233;51.312;6.512;2022-09-12T16:56:50;5.63;;;3.60;;
18214;SDS011;9233;51.312;6.512;2022-09-12T16:59:37;3.87;;;2.70;;
18214;SDS011;9233;51.312;6.512;2022-09-12T17:02:25;2.37;;;2.17;;
18214;SDS011;9233;51.312;6.512;2022-09-12T17:05:11;3.97;;;2.07;;
18214;SDS011;9233;51.312;6.512;2022-09-12T17:08:00;1.90;;;1.70;;
18214;SDS011;9233;51.312;6.512;2022-09-12T17:10:47;2.27;;;2.03;;
18214;SDS011;9233;51.312;6.512;2022-09-12T17:13:33;2.60;;;1.97;;
18214;SDS011;9233;51.312;6.512;2022-09-12T17:16:20;2.40;;;1.80;;
18214;SDS011;9233;51.312;6.512;2022-09-12T17:19:09;2.03;;;1.60;;
18214;SDS011;9233;51.312;6.512;2022-09-12T17:21:57;8.67;;;2.03;;
18214;SDS011;9233;51.312;6.512;2022-09-12T17:24:44;2.80;;;2.10;;
18214;SDS011;9233;51.312;6.512;2022-09-12T17:27:30;3.20;;;2.30;;
18214;SDS011;9233;51.312;6.512;2022-09-12T17:30:17;2.70;;;2.13;;
18214;SDS011;9233;51.312;6.512;2022-09-12T17:33:03;2.27;;;1.97;;
18214;SDS011;9233;51.312;6.512;2022-09-12T17:35:51;3.97;;;2.20;;
18214;SDS011;9233;51.312;6.512;2022-09-12T17:38:38;3.53;;;2.03;;